Airfield :
LOGIN :

Register | Disclaimer

   EN    FR    IT 

 










Legend :    VFR   Marginal VFR   IFR   Intensive IFR   Very Intensive IFR
Visi :
Ceiling :
>= 8 km
>= 3000ft
5 to 8 km
1000 to 3000 ft
1500m to 5 km
500 to 1000 ft
800 to 1500m
200 to 500 ft
< 800m
< 200 ft
Symbols :   Thunderstorms  Fog  Heavy snow  Heavy precipitations  Wind > 20 kt
SIGMETs :     Misc.  Thunderstorms  Icing  Turbulence  Mountain Waves  Volcanic Ashes







- Airport Elevation : 313 ft
- IATA code : LEH
- Download approach charts


LFOH - Le Havre Octeville

CURRENT METAR :
  • 210230Z AUTO 21016G28KT 9999 FEW007 BKN035 OVC043 14/12 Q1008

EXPIRED METARs :
  • 210200Z AUTO 21018G30KT 170V250 9000 4400 RA FEW010/// OVC017/// ///TCU 14/12 Q1008
  • 210130Z AUTO 17012KT 140V200 9999 BKN022 OVC027 16/13 Q1007
  • 210100Z AUTO 17015KT 9999 FEW021 BKN027 OVC034 16/12 Q1007
  • 210030Z AUTO 16013KT 9999 BKN024 BKN052 BKN064 15/12 Q1007
  • 210000Z AUTO 15013KT 9999 BKN026 BKN032 BKN100 15/12 Q1007

TAF TAF LFOH
Valid from the 20 at 12:00 until the 21 at 12:00 UTC


201100Z 2012/2112 23020G30KT 9999 SCT020
BECMG 2017/2020 16013KT
BECMG 2021/2023 20020G30KT
TEMPO 2100/2104 4000 RA BKN013
TEMPO 2108/2112 22027G40KT 4000 SHRA BKN020CB
ATIS : +33 2 35 54 64 93
No reported NOTAMs for that airfield.
1 SIGMET reported for the Paris FIR (LFFF) :
 
Severe turbulence
LFFF SIGMET 1 VALID 210300/210700 LFPW
LFFF PARIS FIR/UIR SEV TURB FCST WI N4900 W00015 - N5000 W00015 - N5115 E00200 - N5100 E00245 - N5030 E00245 SFC/FL060 MOV E 20KT INTSF=



MET'MAP, your aeronautical weather chart ! - Copyright ORBIFLY December 2007 - Disclaimer

ORBIFLY MET'MAP TEAM :

Programming & Development : Alexandra Zaïnal
Concept & Development : Baudouin d'Aumeries
Co-Development & Prog : Marc-Olivier Méhu
Technical & hardware support : Manuel Goepfert

Contact : metmap@orbifly.com




SOURCES & CREDITS :

   NOAA